Terminal Aerodrome Forecast
Issued by NWS

Home | Current Version | Previous Version | Text Only | Print | Product List | Glossary On
Versions: 1 2 3 4 5 6 7 8 9 10 11 12 13 14 15
000
FTUS41 KPBZ 232300
TAFBVI
TAF
KBVI 232326Z 2400/2424 13010KT P6SM BKN100
     FM240200 15010KT 6SM -RA OVC040
     FM240400 18012G18KT 5SM -RA OVC015
      TEMPO 2405/2408 2SM -RA BR OVC008
     FM241200 17012KT P6SM OVC025
     FM241500 19018G38KT P6SM BKN050
      AMD NOT SKED 2402/2412=

USA.gov is the U.S. government's official web portal to all federal, state and local government web resources and services.